sensor_id;sensor_type;location;lat;lon;timestamp;P1;durP1;ratioP1;P2;durP2;ratioP2
53503;SDS011;39387;50.998;22.340;2023-02-28T00:01:07;8.32;;;4.15;;
53503;SDS011;39387;50.998;22.340;2023-02-28T00:03:34;11.23;;;4.30;;
53503;SDS011;39387;50.998;22.340;2023-02-28T00:06:02;8.68;;;4.53;;
53503;SDS011;39387;50.998;22.340;2023-02-28T00:08:31;9.10;;;4.82;;
53503;SDS011;39387;50.998;22.340;2023-02-28T00:11:00;10.38;;;5.03;;
53503;SDS011;39387;50.998;22.340;2023-02-28T00:13:29;12.30;;;4.07;;
53503;SDS011;39387;50.998;22.340;2023-02-28T00:16:00;9.10;;;4.82;;
53503;SDS011;39387;50.998;22.340;2023-02-28T00:18:29;9.70;;;4.35;;
53503;SDS011;39387;50.998;22.340;2023-02-28T00:20:56;10.15;;;4.55;;
53503;SDS011;39387;50.998;22.340;2023-02-28T00:23:24;9.68;;;4.72;;
53503;SDS011;39387;50.998;22.340;2023-02-28T00:25:53;9.55;;;4.35;;
53503;SDS011;39387;50.998;22.340;2023-02-28T00:28:21;9.20;;;3.85;;
53503;SDS011;39387;50.998;22.340;2023-02-28T00:30:49;9.95;;;4.60;;
53503;SDS011;39387;50.998;22.340;2023-02-28T00:33:17;12.50;;;4.88;;
53503;SDS011;39387;50.998;22.340;2023-02-28T00:35:44;10.52;;;5.43;;
53503;SDS011;39387;50.998;22.340;2023-02-28T00:38:12;10.88;;;4.53;;
53503;SDS011;39387;50.998;22.340;2023-02-28T00:40:40;11.52;;;5.13;;
53503;SDS011;39387;50.998;22.340;2023-02-28T00:43:09;12.05;;;5.30;;
53503;SDS011;39387;50.998;22.340;2023-02-28T00:45:36;10.85;;;4.65;;
53503;SDS011;39387;50.998;22.340;2023-02-28T00:48:04;11.15;;;5.05;;
53503;SDS011;39387;50.998;22.340;2023-02-28T00:50:31;11.82;;;5.10;;
53503;SDS011;39387;50.998;22.340;2023-02-28T00:52:59;10.77;;;4.65;;
53503;SDS011;39387;50.998;22.340;2023-02-28T00:55:27;9.75;;;4.57;;
53503;SDS011;39387;50.998;22.340;2023-02-28T00:57:54;10.65;;;5.25;;
53503;SDS011;39387;50.998;22.340;2023-02-28T01:00:23;16.75;;;5.35;;
53503;SDS011;39387;50.998;22.340;2023-02-28T01:02:51;13.18;;;5.03;;
53503;SDS011;39387;50.998;22.340;2023-02-28T01:05:18;11.70;;;5.20;;
53503;SDS011;39387;50.998;22.340;2023-02-28T01:07:46;17.95;;;6.93;;
53503;SDS011;39387;50.998;22.340;2023-02-28T01:10:13;12.80;;;5.45;;
53503;SDS011;39387;50.998;22.340;2023-02-28T01:12:41;13.05;;;6.10;;
53503;SDS011;39387;50.998;22.340;2023-02-28T01:15:09;14.05;;;6.40;;
53503;SDS011;39387;50.998;22.340;2023-02-28T01:17:39;13.35;;;5.95;;
53503;SDS011;39387;50.998;22.340;2023-02-28T01:20:06;13.13;;;5.82;;
53503;SDS011;39387;50.998;22.340;2023-02-28T01:22:35;12.48;;;5.80;;
53503;SDS011;39387;50.998;22.340;2023-02-28T01:25:02;17.70;;;7.30;;
53503;SDS011;39387;50.998;22.340;2023-02-28T01:27:30;15.35;;;5.95;;
53503;SDS011;39387;50.998;22.340;2023-02-28T01:29:57;15.73;;;6.28;;
53503;SDS011;39387;50.998;22.340;2023-02-28T01:32:25;14.38;;;5.88;;
53503;SDS011;39387;50.998;22.340;2023-02-28T01:34:54;18.63;;;6.88;;
53503;SDS011;39387;50.998;22.340;2023-02-28T01:37:22;16.30;;;7.00;;
53503;SDS011;39387;50.998;22.340;2023-02-28T01:39:49;15.05;;;6.50;;
53503;SDS011;39387;50.998;22.340;2023-02-28T01:42:17;15.27;;;6.63;;
53503;SDS011;39387;50.998;22.340;2023-02-28T01:45:00;16.13;;;6.88;;
53503;SDS011;39387;50.998;22.340;2023-02-28T01:47:32;17.35;;;7.60;;
53503;SDS011;39387;50.998;22.340;2023-02-28T01:50:04;17.23;;;7.53;;
53503;SDS011;39387;50.998;22.340;2023-02-28T01:52:35;19.35;;;7.93;;
53503;SDS011;39387;50.998;22.340;2023-02-28T01:55:03;22.67;;;6.78;;
53503;SDS011;39387;50.998;22.340;2023-02-28T01:57:32;16.17;;;6.85;;
53503;SDS011;39387;50.998;22.340;2023-02-28T02:02:35;18.33;;;5.85;;
53503;SDS011;39387;50.998;22.340;2023-02-28T02:05:06;13.50;;;6.00;;
53503;SDS011;39387;50.998;22.340;2023-02-28T02:07:36;10.70;;;5.05;;
53503;SDS011;39387;50.998;22.340;2023-02-28T02:10:05;11.98;;;5.43;;
53503;SDS011;39387;50.998;22.340;2023-02-28T02:12:42;12.85;;;7.28;;
53503;SDS011;39387;50.998;22.340;2023-02-28T02:15:24;18.35;;;6.30;;
53503;SDS011;39387;50.998;22.340;2023-02-28T02:17:55;15.27;;;5.93;;
53503;SDS011;39387;50.998;22.340;2023-02-28T02:23:47;11.38;;;5.93;;
53503;SDS011;39387;50.998;22.340;2023-02-28T02:26:50;17.63;;;5.43;;
53503;SDS011;39387;50.998;22.340;2023-02-28T02:29:35;13.50;;;5.68;;
53503;SDS011;39387;50.998;22.340;2023-02-28T02:35:02;13.55;;;4.85;;
53503;SDS011;39387;50.998;22.340;2023-02-28T02:37:35;13.38;;;5.10;;
53503;SDS011;39387;50.998;22.340;2023-02-28T02:40:08;12.90;;;5.53;;
53503;SDS011;39387;50.998;22.340;2023-02-28T02:42:39;17.45;;;5.82;;
53503;SDS011;39387;50.998;22.340;2023-02-28T02:45:11;13.05;;;5.93;;
53503;SDS011;39387;50.998;22.340;2023-02-28T02:47:42;15.40;;;6.35;;
53503;SDS011;39387;50.998;22.340;2023-02-28T02:50:13;12.73;;;5.32;;
53503;SDS011;39387;50.998;22.340;2023-02-28T02:52:44;16.05;;;6.50;;
53503;SDS011;39387;50.998;22.340;2023-02-28T02:55:12;12.80;;;5.82;;
53503;SDS011;39387;50.998;22.340;2023-02-28T02:57:51;19.23;;;6.80;;
53503;SDS011;39387;50.998;22.340;2023-02-28T03:02:49;13.18;;;6.03;;
53503;SDS011;39387;50.998;22.340;2023-02-28T03:05:20;14.13;;;5.97;;
53503;SDS011;39387;50.998;22.340;2023-02-28T03:07:50;13.18;;;5.85;;
53503;SDS011;39387;50.998;22.340;2023-02-28T03:10:32;14.73;;;5.97;;
53503;SDS011;39387;50.998;22.340;2023-02-28T03:15:59;14.18;;;6.72;;
53503;SDS011;39387;50.998;22.340;2023-02-28T03:18:37;13.57;;;5.75;;
53503;SDS011;39387;50.998;22.340;2023-02-28T03:21:11;12.20;;;5.53;;
53503;SDS011;39387;50.998;22.340;2023-02-28T03:23:45;12.82;;;5.72;;
53503;SDS011;39387;50.998;22.340;2023-02-28T03:26:18;17.75;;;6.53;;
53503;SDS011;39387;50.998;22.340;2023-02-28T03:28:49;11.55;;;5.35;;
53503;SDS011;39387;50.998;22.340;2023-02-28T03:31:20;16.15;;;6.05;;
53503;SDS011;39387;50.998;22.340;2023-02-28T03:33:50;11.35;;;5.20;;
53503;SDS011;39387;50.998;22.340;2023-02-28T03:36:24;11.90;;;5.72;;
53503;SDS011;39387;50.998;22.340;2023-02-28T03:38:54;14.07;;;5.72;;
53503;SDS011;39387;50.998;22.340;2023-02-28T03:41:25;17.50;;;6.78;;
53503;SDS011;39387;50.998;22.340;2023-02-28T03:43:56;15.27;;;5.88;;
53503;SDS011;39387;50.998;22.340;2023-02-28T03:46:26;12.25;;;6.38;;
53503;SDS011;39387;50.998;22.340;2023-02-28T03:48:57;14.30;;;5.78;;
53503;SDS011;39387;50.998;22.340;2023-02-28T03:51:29;13.90;;;6.72;;
53503;SDS011;39387;50.998;22.340;2023-02-28T03:53:58;13.15;;;6.45;;
53503;SDS011;39387;50.998;22.340;2023-02-28T03:56:30;12.85;;;5.95;;
53503;SDS011;39387;50.998;22.340;2023-02-28T03:59:00;11.82;;;6.22;;
53503;SDS011;39387;50.998;22.340;2023-02-28T04:01:31;18.23;;;6.32;;
53503;SDS011;39387;50.998;22.340;2023-02-28T04:04:02;13.68;;;5.93;;
53503;SDS011;39387;50.998;22.340;2023-02-28T04:06:32;14.27;;;6.57;;
53503;SDS011;39387;50.998;22.340;2023-02-28T04:09:00;15.45;;;6.65;;
53503;SDS011;39387;50.998;22.340;2023-02-28T04:11:29;11.75;;;5.50;;
53503;SDS011;39387;50.998;22.340;2023-02-28T04:14:00;13.38;;;7.05;;
53503;SDS011;39387;50.998;22.340;2023-02-28T04:16:28;14.88;;;6.50;;
53503;SDS011;39387;50.998;22.340;2023-02-28T04:18:56;13.98;;;6.10;;
53503;SDS011;39387;50.998;22.340;2023-02-28T04:21:27;16.48;;;6.10;;
53503;SDS011;39387;50.998;22.340;2023-02-28T04:23:56;14.50;;;6.70;;
53503;SDS011;39387;50.998;22.340;2023-02-28T04:26:27;13.65;;;6.35;;
53503;SDS011;39387;50.998;22.340;2023-02-28T04:28:58;17.45;;;7.85;;
53503;SDS011;39387;50.998;22.340;2023-02-28T04:31:25;13.13;;;6.65;;
53503;SDS011;39387;50.998;22.340;2023-02-28T04:33:52;15.52;;;6.38;;
53503;SDS011;39387;50.998;22.340;2023-02-28T04:36:20;15.25;;;7.18;;
53503;SDS011;39387;50.998;22.340;2023-02-28T04:38:48;21.50;;;7.80;;
53503;SDS011;39387;50.998;22.340;2023-02-28T04:41:17;18.98;;;7.63;;
53503;SDS011;39387;50.998;22.340;2023-02-28T04:43:46;17.17;;;6.55;;
53503;SDS011;39387;50.998;22.340;2023-02-28T04:46:13;12.25;;;5.97;;
53503;SDS011;39387;50.998;22.340;2023-02-28T04:48:41;16.48;;;6.60;;
53503;SDS011;39387;50.998;22.340;2023-02-28T04:51:10;16.08;;;6.65;;
53503;SDS011;39387;50.998;22.340;2023-02-28T04:53:39;14.80;;;6.30;;
53503;SDS011;39387;50.998;22.340;2023-02-28T04:56:08;19.20;;;6.88;;
53503;SDS011;39387;50.998;22.340;2023-02-28T04:58:39;11.52;;;5.72;;
53503;SDS011;39387;50.998;22.340;2023-02-28T05:01:07;12.15;;;5.93;;
53503;SDS011;39387;50.998;22.340;2023-02-28T05:03:45;15.95;;;5.88;;
53503;SDS011;39387;50.998;22.340;2023-02-28T05:06:13;12.05;;;5.93;;
53503;SDS011;39387;50.998;22.340;2023-02-28T05:08:41;15.65;;;6.88;;
53503;SDS011;39387;50.998;22.340;2023-02-28T05:11:13;15.45;;;6.38;;
53503;SDS011;39387;50.998;22.340;2023-02-28T05:13:45;14.27;;;6.50;;
53503;SDS011;39387;50.998;22.340;2023-02-28T05:16:13;16.83;;;6.90;;
53503;SDS011;39387;50.998;22.340;2023-02-28T05:18:41;18.52;;;7.28;;
53503;SDS011;39387;50.998;22.340;2023-02-28T05:21:17;16.77;;;7.15;;
53503;SDS011;39387;50.998;22.340;2023-02-28T05:23:50;16.50;;;6.57;;
53503;SDS011;39387;50.998;22.340;2023-02-28T05:26:18;15.55;;;6.45;;
53503;SDS011;39387;50.998;22.340;2023-02-28T05:28:47;12.82;;;5.60;;
53503;SDS011;39387;50.998;22.340;2023-02-28T05:31:14;18.35;;;6.22;;
53503;SDS011;39387;50.998;22.340;2023-02-28T05:33:42;12.95;;;6.07;;
53503;SDS011;39387;50.998;22.340;2023-02-28T05:36:09;12.80;;;5.07;;
53503;SDS011;39387;50.998;22.340;2023-02-28T05:38:37;14.68;;;5.72;;
53503;SDS011;39387;50.998;22.340;2023-02-28T05:41:05;9.95;;;5.13;;
53503;SDS011;39387;50.998;22.340;2023-02-28T05:43:34;10.10;;;5.10;;
53503;SDS011;39387;50.998;22.340;2023-02-28T05:46:05;12.43;;;5.22;;
53503;SDS011;39387;50.998;22.340;2023-02-28T05:48:34;14.82;;;5.03;;
53503;SDS011;39387;50.998;22.340;2023-02-28T05:51:03;16.73;;;5.70;;
53503;SDS011;39387;50.998;22.340;2023-02-28T05:53:32;10.35;;;5.22;;
53503;SDS011;39387;50.998;22.340;2023-02-28T05:56:01;12.55;;;5.20;;
53503;SDS011;39387;50.998;22.340;2023-02-28T05:58:29;15.90;;;5.45;;
53503;SDS011;39387;50.998;22.340;2023-02-28T06:00:57;12.10;;;5.68;;
53503;SDS011;39387;50.998;22.340;2023-02-28T06:03:27;12.68;;;5.40;;
53503;SDS011;39387;50.998;22.340;2023-02-28T06:05:55;14.15;;;5.57;;
53503;SDS011;39387;50.998;22.340;2023-02-28T06:08:24;9.45;;;5.22;;
53503;SDS011;39387;50.998;22.340;2023-02-28T06:10:52;12.35;;;5.28;;
53503;SDS011;39387;50.998;22.340;2023-02-28T06:13:20;14.82;;;5.75;;
53503;SDS011;39387;50.998;22.340;2023-02-28T06:15:48;11.90;;;5.18;;
53503;SDS011;39387;50.998;22.340;2023-02-28T06:18:16;10.50;;;5.03;;
53503;SDS011;39387;50.998;22.340;2023-02-28T06:20:46;10.65;;;4.65;;
53503;SDS011;39387;50.998;22.340;2023-02-28T06:23:20;12.80;;;5.93;;
53503;SDS011;39387;50.998;22.340;2023-02-28T06:25:48;11.18;;;4.60;;
53503;SDS011;39387;50.998;22.340;2023-02-28T06:28:17;12.90;;;5.47;;
53503;SDS011;39387;50.998;22.340;2023-02-28T06:30:44;13.32;;;5.88;;
53503;SDS011;39387;50.998;22.340;2023-02-28T06:33:13;10.55;;;4.82;;
53503;SDS011;39387;50.998;22.340;2023-02-28T06:35:43;11.70;;;5.38;;
53503;SDS011;39387;50.998;22.340;2023-02-28T06:38:12;12.47;;;5.00;;
53503;SDS011;39387;50.998;22.340;2023-02-28T06:40:40;12.10;;;5.72;;
53503;SDS011;39387;50.998;22.340;2023-02-28T06:43:08;12.88;;;5.53;;
53503;SDS011;39387;50.998;22.340;2023-02-28T06:45:37;12.60;;;5.32;;
53503;SDS011;39387;50.998;22.340;2023-02-28T06:48:08;16.55;;;7.05;;
53503;SDS011;39387;50.998;22.340;2023-02-28T06:50:36;11.07;;;4.65;;
53503;SDS011;39387;50.998;22.340;2023-02-28T06:53:04;11.07;;;5.00;;
53503;SDS011;39387;50.998;22.340;2023-02-28T06:55:33;11.40;;;5.15;;
53503;SDS011;39387;50.998;22.340;2023-02-28T06:58:00;8.70;;;5.15;;
53503;SDS011;39387;50.998;22.340;2023-02-28T07:00:28;11.35;;;5.13;;
53503;SDS011;39387;50.998;22.340;2023-02-28T07:02:55;13.35;;;5.20;;
53503;SDS011;39387;50.998;22.340;2023-02-28T07:05:22;12.65;;;5.47;;
53503;SDS011;39387;50.998;22.340;2023-02-28T07:07:50;9.95;;;4.70;;
53503;SDS011;39387;50.998;22.340;2023-02-28T07:10:18;8.90;;;5.15;;
53503;SDS011;39387;50.998;22.340;2023-02-28T07:12:47;12.48;;;5.07;;
53503;SDS011;39387;50.998;22.340;2023-02-28T07:15:14;11.25;;;4.82;;
53503;SDS011;39387;50.998;22.340;2023-02-28T07:17:42;14.50;;;7.45;;
53503;SDS011;39387;50.998;22.340;2023-02-28T07:20:10;6.97;;;4.22;;
53503;SDS011;39387;50.998;22.340;2023-02-28T07:22:38;11.68;;;6.88;;
53503;SDS011;39387;50.998;22.340;2023-02-28T07:25:07;16.17;;;10.05;;
53503;SDS011;39387;50.998;22.340;2023-02-28T07:27:35;12.00;;;6.30;;
53503;SDS011;39387;50.998;22.340;2023-02-28T07:30:05;12.77;;;6.57;;
53503;SDS011;39387;50.998;22.340;2023-02-28T07:32:33;12.57;;;7.47;;
53503;SDS011;39387;50.998;22.340;2023-02-28T07:35:03;8.48;;;5.28;;
53503;SDS011;39387;50.998;22.340;2023-02-28T07:37:31;11.48;;;5.90;;
53503;SDS011;39387;50.998;22.340;2023-02-28T07:40:02;12.02;;;6.13;;
53503;SDS011;39387;50.998;22.340;2023-02-28T07:42:34;20.45;;;12.50;;
53503;SDS011;39387;50.998;22.340;2023-02-28T07:45:01;17.00;;;11.60;;
53503;SDS011;39387;50.998;22.340;2023-02-28T07:47:31;12.35;;;6.88;;
53503;SDS011;39387;50.998;22.340;2023-02-28T07:49:58;11.45;;;7.10;;
53503;SDS011;39387;50.998;22.340;2023-02-28T07:52:26;9.65;;;5.00;;
53503;SDS011;39387;50.998;22.340;2023-02-28T07:54:54;9.73;;;5.95;;
53503;SDS011;39387;50.998;22.340;2023-02-28T07:57:22;11.52;;;6.32;;
53503;SDS011;39387;50.998;22.340;2023-02-28T07:59:51;12.73;;;6.43;;
53503;SDS011;39387;50.998;22.340;2023-02-28T08:02:19;14.70;;;9.00;;
53503;SDS011;39387;50.998;22.340;2023-02-28T08:04:47;9.85;;;5.78;;
53503;SDS011;39387;50.998;22.340;2023-02-28T08:07:16;10.07;;;5.07;;
53503;SDS011;39387;50.998;22.340;2023-02-28T08:09:44;8.13;;;4.60;;
53503;SDS011;39387;50.998;22.340;2023-02-28T08:12:12;11.48;;;5.13;;
53503;SDS011;39387;50.998;22.340;2023-02-28T08:14:39;9.02;;;4.85;;
53503;SDS011;39387;50.998;22.340;2023-02-28T08:17:07;7.97;;;3.97;;
53503;SDS011;39387;50.998;22.340;2023-02-28T08:19:34;8.88;;;4.65;;
53503;SDS011;39387;50.998;22.340;2023-02-28T08:22:03;10.02;;;5.50;;
53503;SDS011;39387;50.998;22.340;2023-02-28T08:24:31;8.65;;;4.97;;
53503;SDS011;39387;50.998;22.340;2023-02-28T08:26:59;10.48;;;5.20;;
53503;SDS011;39387;50.998;22.340;2023-02-28T08:29:26;8.60;;;4.75;;
53503;SDS011;39387;50.998;22.340;2023-02-28T08:31:55;9.15;;;4.78;;
53503;SDS011;39387;50.998;22.340;2023-02-28T08:34:22;7.25;;;4.72;;
53503;SDS011;39387;50.998;22.340;2023-02-28T08:36:50;10.45;;;5.90;;
53503;SDS011;39387;50.998;22.340;2023-02-28T08:39:20;9.55;;;5.30;;
53503;SDS011;39387;50.998;22.340;2023-02-28T08:41:47;11.60;;;5.57;;
53503;SDS011;39387;50.998;22.340;2023-02-28T08:44:15;9.07;;;4.90;;
53503;SDS011;39387;50.998;22.340;2023-02-28T08:46:43;10.27;;;4.85;;
53503;SDS011;39387;50.998;22.340;2023-02-28T08:49:10;7.97;;;4.65;;
53503;SDS011;39387;50.998;22.340;2023-02-28T08:51:38;9.48;;;4.70;;
53503;SDS011;39387;50.998;22.340;2023-02-28T08:54:05;11.55;;;4.90;;
53503;SDS011;39387;50.998;22.340;2023-02-28T08:56:35;9.75;;;5.05;;
53503;SDS011;39387;50.998;22.340;2023-02-28T08:59:02;8.00;;;4.22;;
53503;SDS011;39387;50.998;22.340;2023-02-28T09:01:30;9.23;;;4.38;;
53503;SDS011;39387;50.998;22.340;2023-02-28T09:03:57;7.43;;;4.20;;
53503;SDS011;39387;50.998;22.340;2023-02-28T09:06:25;12.02;;;4.40;;
53503;SDS011;39387;50.998;22.340;2023-02-28T09:08:55;8.70;;;4.55;;
53503;SDS011;39387;50.998;22.340;2023-02-28T09:11:27;8.63;;;4.55;;
53503;SDS011;39387;50.998;22.340;2023-02-28T09:13:55;8.68;;;4.57;;
53503;SDS011;39387;50.998;22.340;2023-02-28T09:16:25;10.25;;;4.55;;
53503;SDS011;39387;50.998;22.340;2023-02-28T09:18:52;9.73;;;4.43;;
53503;SDS011;39387;50.998;22.340;2023-02-28T09:21:20;9.27;;;5.07;;
53503;SDS011;39387;50.998;22.340;2023-02-28T09:23:48;9.20;;;4.57;;
53503;SDS011;39387;50.998;22.340;2023-02-28T09:26:18;10.75;;;4.57;;
53503;SDS011;39387;50.998;22.340;2023-02-28T09:28:46;8.18;;;4.68;;
53503;SDS011;39387;50.998;22.340;2023-02-28T09:31:16;7.38;;;4.35;;
53503;SDS011;39387;50.998;22.340;2023-02-28T09:33:47;8.55;;;4.07;;
53503;SDS011;39387;50.998;22.340;2023-02-28T09:36:15;8.82;;;4.03;;
53503;SDS011;39387;50.998;22.340;2023-02-28T09:38:43;7.80;;;4.07;;
53503;SDS011;39387;50.998;22.340;2023-02-28T09:41:13;7.35;;;3.95;;
53503;SDS011;39387;50.998;22.340;2023-02-28T09:43:43;5.78;;;3.55;;
53503;SDS011;39387;50.998;22.340;2023-02-28T09:46:18;9.60;;;4.13;;
53503;SDS011;39387;50.998;22.340;2023-02-28T09:48:52;7.68;;;4.05;;
53503;SDS011;39387;50.998;22.340;2023-02-28T09:51:33;8.10;;;4.00;;
53503;SDS011;39387;50.998;22.340;2023-02-28T09:54:09;7.70;;;3.97;;
53503;SDS011;39387;50.998;22.340;2023-02-28T09:56:45;7.90;;;3.67;;
53503;SDS011;39387;50.998;22.340;2023-02-28T09:59:16;6.28;;;3.45;;
53503;SDS011;39387;50.998;22.340;2023-02-28T10:01:51;7.82;;;3.90;;
53503;SDS011;39387;50.998;22.340;2023-02-28T10:04:26;8.15;;;3.75;;
53503;SDS011;39387;50.998;22.340;2023-02-28T10:07:11;8.07;;;4.10;;
53503;SDS011;39387;50.998;22.340;2023-02-28T10:09:45;5.72;;;3.17;;
53503;SDS011;39387;50.998;22.340;2023-02-28T10:12:15;8.32;;;3.60;;
53503;SDS011;39387;50.998;22.340;2023-02-28T10:14:44;6.03;;;3.08;;
53503;SDS011;39387;50.998;22.340;2023-02-28T10:17:16;6.68;;;3.28;;
53503;SDS011;39387;50.998;22.340;2023-02-28T10:19:55;7.20;;;3.42;;
53503;SDS011;39387;50.998;22.340;2023-02-28T10:22:26;5.28;;;3.55;;
53503;SDS011;39387;50.998;22.340;2023-02-28T10:24:56;5.70;;;2.60;;
53503;SDS011;39387;50.998;22.340;2023-02-28T10:27:29;5.50;;;3.40;;
53503;SDS011;39387;50.998;22.340;2023-02-28T10:29:58;6.43;;;3.40;;
53503;SDS011;39387;50.998;22.340;2023-02-28T10:32:29;5.60;;;3.10;;
53503;SDS011;39387;50.998;22.340;2023-02-28T10:34:59;4.00;;;2.92;;
53503;SDS011;39387;50.998;22.340;2023-02-28T10:37:34;7.55;;;3.40;;
53503;SDS011;39387;50.998;22.340;2023-02-28T10:40:04;5.63;;;3.08;;
53503;SDS011;39387;50.998;22.340;2023-02-28T10:42:34;6.15;;;3.20;;
53503;SDS011;39387;50.998;22.340;2023-02-28T10:45:05;6.57;;;3.15;;
53503;SDS011;39387;50.998;22.340;2023-02-28T10:47:36;6.70;;;3.47;;
53503;SDS011;39387;50.998;22.340;2023-02-28T10:50:22;6.72;;;4.30;;
53503;SDS011;39387;50.998;22.340;2023-02-28T10:52:55;5.53;;;3.20;;
53503;SDS011;39387;50.998;22.340;2023-02-28T10:55:25;6.43;;;3.17;;
53503;SDS011;39387;50.998;22.340;2023-02-28T10:57:52;4.38;;;2.88;;
53503;SDS011;39387;50.998;22.340;2023-02-28T11:00:21;7.47;;;3.75;;
53503;SDS011;39387;50.998;22.340;2023-02-28T11:02:52;6.00;;;3.25;;
53503;SDS011;39387;50.998;22.340;2023-02-28T11:05:24;5.75;;;3.38;;
53503;SDS011;39387;50.998;22.340;2023-02-28T11:07:53;7.57;;;3.83;;
53503;SDS011;39387;50.998;22.340;2023-02-28T11:10:22;6.53;;;3.85;;
53503;SDS011;39387;50.998;22.340;2023-02-28T11:12:54;7.00;;;3.53;;
53503;SDS011;39387;50.998;22.340;2023-02-28T11:15:23;8.57;;;4.03;;
53503;SDS011;39387;50.998;22.340;2023-02-28T11:17:56;5.80;;;3.20;;
53503;SDS011;39387;50.998;22.340;2023-02-28T11:20:26;5.40;;;3.67;;
53503;SDS011;39387;50.998;22.340;2023-02-28T11:22:56;6.22;;;3.55;;
53503;SDS011;39387;50.998;22.340;2023-02-28T11:25:24;7.10;;;3.90;;
53503;SDS011;39387;50.998;22.340;2023-02-28T11:27:53;5.75;;;3.88;;
53503;SDS011;39387;50.998;22.340;2023-02-28T11:30:29;9.60;;;4.97;;
53503;SDS011;39387;50.998;22.340;2023-02-28T11:33:18;9.70;;;4.50;;
53503;SDS011;39387;50.998;22.340;2023-02-28T11:35:49;5.50;;;3.95;;
53503;SDS011;39387;50.998;22.340;2023-02-28T11:38:17;6.10;;;3.78;;
53503;SDS011;39387;50.998;22.340;2023-02-28T11:40:46;7.70;;;3.88;;
53503;SDS011;39387;50.998;22.340;2023-02-28T11:43:20;6.65;;;3.88;;
53503;SDS011;39387;50.998;22.340;2023-02-28T11:45:57;5.88;;;3.17;;
53503;SDS011;39387;50.998;22.340;2023-02-28T11:48:40;8.48;;;4.15;;
53503;SDS011;39387;50.998;22.340;2023-02-28T11:51:14;11.48;;;5.55;;
53503;SDS011;39387;50.998;22.340;2023-02-28T11:53:57;12.55;;;5.28;;
53503;SDS011;39387;50.998;22.340;2023-02-28T11:56:36;11.02;;;4.60;;
53503;SDS011;39387;50.998;22.340;2023-02-28T11:59:10;12.00;;;5.10;;
53503;SDS011;39387;50.998;22.340;2023-02-28T12:01:54;8.35;;;4.75;;
53503;SDS011;39387;50.998;22.340;2023-02-28T12:04:35;9.48;;;3.97;;
53503;SDS011;39387;50.998;22.340;2023-02-28T12:07:08;6.75;;;4.28;;
53503;SDS011;39387;50.998;22.340;2023-02-28T12:09:44;7.75;;;4.30;;
53503;SDS011;39387;50.998;22.340;2023-02-28T12:12:21;7.53;;;4.05;;
53503;SDS011;39387;50.998;22.340;2023-02-28T12:14:56;8.20;;;4.63;;
53503;SDS011;39387;50.998;22.340;2023-02-28T12:17:36;6.93;;;3.92;;
53503;SDS011;39387;50.998;22.340;2023-02-28T12:20:16;6.57;;;4.00;;
53503;SDS011;39387;50.998;22.340;2023-02-28T12:22:49;9.27;;;4.18;;
53503;SDS011;39387;50.998;22.340;2023-02-28T12:25:34;8.60;;;4.88;;
53503;SDS011;39387;50.998;22.340;2023-02-28T12:28:25;8.00;;;4.47;;
53503;SDS011;39387;50.998;22.340;2023-02-28T12:30:56;7.90;;;4.40;;
53503;SDS011;39387;50.998;22.340;2023-02-28T12:33:28;10.75;;;4.40;;
53503;SDS011;39387;50.998;22.340;2023-02-28T12:36:03;6.75;;;4.20;;
53503;SDS011;39387;50.998;22.340;2023-02-28T12:38:35;7.22;;;4.20;;
53503;SDS011;39387;50.998;22.340;2023-02-28T12:41:05;8.63;;;4.85;;
53503;SDS011;39387;50.998;22.340;2023-02-28T12:43:38;8.18;;;4.20;;
53503;SDS011;39387;50.998;22.340;2023-02-28T12:46:09;8.10;;;4.43;;
53503;SDS011;39387;50.998;22.340;2023-02-28T12:48:40;7.05;;;4.18;;
53503;SDS011;39387;50.998;22.340;2023-02-28T12:51:13;8.70;;;4.50;;
53503;SDS011;39387;50.998;22.340;2023-02-28T12:53:48;8.15;;;4.80;;
53503;SDS011;39387;50.998;22.340;2023-02-28T12:56:21;8.23;;;4.75;;
53503;SDS011;39387;50.998;22.340;2023-02-28T12:58:54;7.47;;;4.55;;
53503;SDS011;39387;50.998;22.340;2023-02-28T13:01:33;8.05;;;4.75;;
53503;SDS011;39387;50.998;22.340;2023-02-28T13:04:39;8.07;;;4.55;;
53503;SDS011;39387;50.998;22.340;2023-02-28T13:07:28;9.00;;;4.10;;
53503;SDS011;39387;50.998;22.340;2023-02-28T13:10:08;9.02;;;4.18;;
53503;SDS011;39387;50.998;22.340;2023-02-28T13:12:36;8.85;;;4.68;;
53503;SDS011;39387;50.998;22.340;2023-02-28T13:15:16;7.32;;;4.38;;
53503;SDS011;39387;50.998;22.340;2023-02-28T13:17:48;9.45;;;4.65;;
53503;SDS011;39387;50.998;22.340;2023-02-28T13:20:17;8.40;;;4.53;;
53503;SDS011;39387;50.998;22.340;2023-02-28T13:22:48;9.43;;;4.50;;
53503;SDS011;39387;50.998;22.340;2023-02-28T13:31:27;7.82;;;4.18;;
53503;SDS011;39387;50.998;22.340;2023-02-28T13:34:06;10.98;;;5.13;;
53503;SDS011;39387;50.998;22.340;2023-02-28T13:36:40;10.27;;;5.30;;
53503;SDS011;39387;50.998;22.340;2023-02-28T13:48:04;9.57;;;4.75;;
53503;SDS011;39387;50.998;22.340;2023-02-28T13:50:43;9.15;;;5.00;;
53503;SDS011;39387;50.998;22.340;2023-02-28T13:56:22;9.45;;;4.65;;
53503;SDS011;39387;50.998;22.340;2023-02-28T13:58:55;8.02;;;5.07;;
53503;SDS011;39387;50.998;22.340;2023-02-28T14:01:29;7.60;;;4.80;;
53503;SDS011;39387;50.998;22.340;2023-02-28T14:07:24;8.45;;;4.32;;
53503;SDS011;39387;50.998;22.340;2023-02-28T14:09:57;8.52;;;5.03;;
53503;SDS011;39387;50.998;22.340;2023-02-28T14:15:30;11.55;;;6.25;;
53503;SDS011;39387;50.998;22.340;2023-02-28T14:18:14;8.15;;;4.40;;
53503;SDS011;39387;50.998;22.340;2023-02-28T14:20:45;10.00;;;4.80;;
53503;SDS011;39387;50.998;22.340;2023-02-28T14:23:16;10.30;;;4.40;;
53503;SDS011;39387;50.998;22.340;2023-02-28T14:25:53;9.48;;;5.18;;
53503;SDS011;39387;50.998;22.340;2023-02-28T14:28:33;10.23;;;5.43;;
53503;SDS011;39387;50.998;22.340;2023-02-28T14:31:10;10.93;;;5.75;;
53503;SDS011;39387;50.998;22.340;2023-02-28T14:36:32;9.10;;;5.18;;
53503;SDS011;39387;50.998;22.340;2023-02-28T14:39:01;9.43;;;5.00;;
53503;SDS011;39387;50.998;22.340;2023-02-28T14:41:32;11.38;;;5.15;;
53503;SDS011;39387;50.998;22.340;2023-02-28T14:44:13;8.18;;;5.13;;
53503;SDS011;39387;50.998;22.340;2023-02-28T14:46:42;8.32;;;4.57;;
53503;SDS011;39387;50.998;22.340;2023-02-28T14:49:12;11.32;;;5.75;;
53503;SDS011;39387;50.998;22.340;2023-02-28T14:51:43;7.97;;;5.18;;
53503;SDS011;39387;50.998;22.340;2023-02-28T14:54:13;9.75;;;5.13;;
53503;SDS011;39387;50.998;22.340;2023-02-28T14:56:42;10.07;;;4.82;;
53503;SDS011;39387;50.998;22.340;2023-02-28T15:02:20;11.20;;;5.40;;
53503;SDS011;39387;50.998;22.340;2023-02-28T15:04:52;8.18;;;4.55;;
53503;SDS011;39387;50.998;22.340;2023-02-28T15:07:21;9.85;;;5.07;;
53503;SDS011;39387;50.998;22.340;2023-02-28T15:10:07;8.00;;;4.82;;
53503;SDS011;39387;50.998;22.340;2023-02-28T15:12:40;11.20;;;5.63;;
53503;SDS011;39387;50.998;22.340;2023-02-28T15:15:15;8.20;;;4.85;;
53503;SDS011;39387;50.998;22.340;2023-02-28T15:17:44;12.85;;;6.05;;
53503;SDS011;39387;50.998;22.340;2023-02-28T15:20:13;10.45;;;5.13;;
53503;SDS011;39387;50.998;22.340;2023-02-28T15:22:42;7.75;;;4.75;;
53503;SDS011;39387;50.998;22.340;2023-02-28T15:25:10;6.97;;;4.50;;
53503;SDS011;39387;50.998;22.340;2023-02-28T15:27:44;9.73;;;5.45;;
53503;SDS011;39387;50.998;22.340;2023-02-28T15:30:16;9.20;;;5.30;;
53503;SDS011;39387;50.998;22.340;2023-02-28T15:32:45;9.35;;;4.80;;